Time;durP1;ratioP1;P1;durP2;ratioP2;P2;SDS_P1;SDS_P2;PMS_P1;PMS_P2;Temp;Humidity;BMP_temperature;BMP_pressure;BME280_temperature;BME280_humidity;BME280_pressure;Samples;Min_cycle;Max_cycle;Signal;HPM_P1;HPM_P2
2022/07/04 00:00:19;;;;;;;;;;;;;;;;;;5014540;28;1044;-78
2022/07/04 00:02:46;;;;;;;;;;;;;;;;;;5014637;28;1080;-76
2022/07/04 00:05:12;;;;;;;;;;;;;;;;;;4997207;28;1368;-78
2022/07/04 00:07:40;;;;;;;;;;;;;;;;;;5013932;28;1296;-78
2022/07/04 00:10:08;;;;;;;;;;;;;;;;;;5014279;28;1915;-79
2022/07/04 00:12:34;;;;;;;;;;;;;;;;;;5014446;28;1104;-78
2022/07/04 00:15:00;;;;;;;;;;;;;;;;;;5014559;28;1069;-78
2022/07/04 00:17:27;;;;;;;;;;;;;;;;;;5013926;28;1352;-77
2022/07/04 00:19:53;;;;;;;;;;;;;;;;;;5014142;28;1124;-78
2022/07/04 00:22:19;;;;;;;;;;;;;;;;;;5014525;28;811;-76
2022/07/04 00:24:46;;;;;;;;;;;;;;;;;;5014431;28;1064;-78
2022/07/04 00:27:13;;;;;;;;;;;;;;;;;;5013491;28;1594;-77
2022/07/04 00:29:39;;;;;;;;;;;;;;;;;;4996376;28;1922;-78
2022/07/04 00:32:05;;;;;;;;;;;;;;;;;;5013120;28;1065;-78
2022/07/04 00:34:32;;;;;;;;;;;;;;;;;;5014295;28;1131;-77
2022/07/04 00:36:58;;;;;;;;;;;;;;;;;;5013441;28;1412;-77
2022/07/04 00:39:24;;;;;;;;;;;;;;;;;;5014203;28;1132;-77
2022/07/04 00:41:52;;;;;;;;;;;;;;;;;;5013763;28;1076;-77
2022/07/04 00:44:18;;;;;;;;;;;;;;;;;;5013648;28;1384;-77
2022/07/04 00:46:44;;;;;;;;;;;;;;;;;;5013224;28;1275;-78
2022/07/04 00:49:11;;;;;;;;;;;;;;;;;;5013983;28;1906;-78
2022/07/04 00:51:38;;;;;;;;;;;;;;;;;;5014118;28;894;-78
2022/07/04 00:54:04;;;;;;;;;;;;;;;;;;5013499;28;1096;-78
2022/07/04 00:56:30;;;;;;;;;;;;;;;;;;5012850;28;1324;-78
2022/07/04 00:58:58;;;;;;;;;;;;;;;;;;5013524;28;1061;-78
2022/07/04 01:01:25;;;;;;;;;;;;;;;;;;5013663;28;1084;-78
2022/07/04 01:03:51;;;;;;;;;;;;;;;;;;5013371;28;885;-77
2022/07/04 01:06:17;;;;;;;;;;;;;;;;;;4995552;28;1404;-77
2022/07/04 01:08:43;;;;;;;;;;;;;;;;;;5013693;28;1922;-78
2022/07/04 01:11:10;;;;;;;;;;;;;;;;;;5013266;28;1147;-77
2022/07/04 01:13:36;;;;;;;;;;;;;;;;;;5013447;28;942;-78
2022/07/04 01:16:04;;;;;;;;;;;;;;;;;;4995753;28;1306;-78
2022/07/04 01:18:30;;;;;;;;;;;;;;;;;;5013104;28;1072;-77
2022/07/04 01:20:58;;;;;;;;;;;;;;;;;;4994927;28;1591;-77
2022/07/04 01:23:24;;;;;;;;;;;;;;;;;;5013196;28;1136;-77
2022/07/04 01:25:50;;;;;;;;;;;;;;;;;;4995692;28;1322;-78
2022/07/04 01:28:17;;;;;;;;;;;;;;;;;;5012153;28;814;-77
2022/07/04 01:30:43;;;;;;;;;;;;;;;;;;5012991;28;1910;-78
2022/07/04 01:33:09;;;;;;;;;;;;;;;;;;5012803;28;799;-77
2022/07/04 01:35:35;;;;;;;;;;;;;;;;;;5013051;28;1404;-78
2022/07/04 01:38:03;;;;;;;;;;;;;;;;;;4994682;28;1306;-77
2022/07/04 01:40:29;;;;;;;;;;;;;;;;;;5012855;28;1064;-78
2022/07/04 01:42:55;;;;;;;;;;;;;;;;;;4995093;28;1592;-81
2022/07/04 01:45:21;;;;;;;;;;;;;;;;;;5013074;28;1072;-78
2022/07/04 01:47:48;;;;;;;;;;;;;;;;;;5012022;28;1365;-78
2022/07/04 01:50:14;;;;;;;;;;;;;;;;;;5012307;28;1919;-78
2022/07/04 01:52:40;;;;;;;;;;;;;;;;;;4995059;28;1267;-77
2022/07/04 01:55:09;;;;;;;;;;;;;;;;;;4995071;28;1027;-78
2022/07/04 01:57:35;;;;;;;;;;;;;;;;;;5008957;28;1829;-77
2022/07/04 02:02:45;;;;;;;;;;;;;;;;;;5023785;28;1221;-77
2022/07/04 02:05:11;;;;;;;;;;;;;;;;;;5018604;28;1155;-78
2022/07/04 02:07:37;;;;;;;;;;;;;;;;;;5011372;28;1379;-78
2022/07/04 02:10:04;;;;;;;;;;;;;;;;;;5012161;28;1918;-77
2022/07/04 02:15:15;;;;;;;;;;;;;;;;;;5012380;28;1017;-77
2022/07/04 02:17:41;;;;;;;;;;;;;;;;;;5009435;28;1845;-77
2022/07/04 02:20:08;;;;;;;;;;;;;;;;;;5023007;28;1158;-76
2022/07/04 02:22:34;;;;;;;;;;;;;;;;;;5031885;28;839;-78
2022/07/04 02:25:00;;;;;;;;;;;;;;;;;;5031701;28;1135;-77
2022/07/04 02:27:26;;;;;;;;;;;;;;;;;;5030968;28;1464;-76
2022/07/04 02:29:54;;;;;;;;;;;;;;;;;;5030354;28;1987;-78
2022/07/04 02:32:20;;;;;;;;;;;;;;;;;;5030394;28;1239;-77
2022/07/04 02:34:46;;;;;;;;;;;;;;;;;;5031609;28;1065;-77
2022/07/04 02:37:13;;;;;;;;;;;;;;;;;;5029438;28;1451;-76
2022/07/04 02:39:39;;;;;;;;;;;;;;;;;;5030592;28;1517;-77
2022/07/04 02:42:05;;;;;;;;;;;;;;;;;;5031598;28;992;-77
2022/07/04 02:44:32;;;;;;;;;;;;;;;;;;5031547;28;1072;-77
2022/07/04 02:47:00;;;;;;;;;;;;;;;;;;5029093;28;1490;-78
2022/07/04 02:49:26;;;;;;;;;;;;;;;;;;5030304;28;1979;-78
2022/07/04 02:51:52;;;;;;;;;;;;;;;;;;5031633;28;933;-78
2022/07/04 02:54:18;;;;;;;;;;;;;;;;;;5013722;28;1179;-78
2022/07/04 02:56:45;;;;;;;;;;;;;;;;;;5010593;28;1333;-77
2022/07/04 02:59:11;;;;;;;;;;;;;;;;;;5011794;28;938;-76
2022/07/04 03:01:37;;;;;;;;;;;;;;;;;;5011649;28;1064;-78
2022/07/04 03:04:05;;;;;;;;;;;;;;;;;;5011458;28;945;-78
2022/07/04 03:06:31;;;;;;;;;;;;;;;;;;5041437;23;3560;-72
2022/07/04 03:08:57;;;;;;;;;;;;;;;;;;5050740;28;1966;-72
2022/07/04 03:11:23;;;;;;;;;;;;;;;;;;5051286;28;1124;-72
2022/07/04 03:13:49;;;;;;;;;;;;;;;;;;5032876;28;1160;-71
2022/07/04 03:16:16;;;;;;;;;;;;;;;;;;5032429;28;1321;-72
2022/07/04 03:18:42;;;;;;;;;;;;;;;;;;5032963;28;1460;-71
2022/07/04 03:21:09;;;;;;;;;;;;;;;;;;5051080;28;1468;-71
2022/07/04 03:23:35;;;;;;;;;;;;;;;;;;5050936;28;960;-72
2022/07/04 03:26:02;;;;;;;;;;;;;;;;;;5051075;28;1340;-72
2022/07/04 03:28:28;;;;;;;;;;;;;;;;;;5050384;28;1137;-72
2022/07/04 03:30:54;;;;;;;;;;;;;;;;;;5050911;28;1983;-71
2022/07/04 03:33:21;;;;;;;;;;;;;;;;;;5050875;28;1115;-72
2022/07/04 03:35:47;;;;;;;;;;;;;;;;;;5050573;28;1408;-71
2022/07/04 03:38:14;;;;;;;;;;;;;;;;;;5050541;28;949;-72
2022/07/04 03:40:40;;;;;;;;;;;;;;;;;;5050920;28;1027;-72
2022/07/04 03:43:07;;;;;;;;;;;;;;;;;;5050795;28;1139;-72
2022/07/04 03:45:33;;;;;;;;;;;;;;;;;;5048939;28;1465;-72
2022/07/04 03:48:02;;;;;;;;;;;;;;;;;;5005578;28;1437;-71
2022/07/04 03:50:28;;;;;;;;;;;;;;;;;;4978375;28;2013;-72
2022/07/04 03:52:54;;;;;;;;;;;;;;;;;;4986762;28;1657;-72
2022/07/04 03:55:22;;;;;;;;;;;;;;;;;;4974499;28;1415;-71
2022/07/04 03:57:49;;;;;;;;;;;;;;;;;;4966484;28;973;-71
2022/07/04 04:00:15;;;;;;;;;;;;;;;;;;4946142;28;835;-72
2022/07/04 04:02:42;;;;;;;;;;;;;;;;;;4965839;28;949;-72
2022/07/04 04:05:26;;;;;;;;;;;;;;;;;;4969701;28;842;-72
2022/07/04 04:07:52;;;;;;;;;;;;;;;;;;4990985;28;1355;-71
2022/07/04 04:10:20;;;;;;;;;;;;;;;;;;4998338;28;1950;-71
2022/07/04 04:12:48;;;;;;;;;;;;;;;;;;4986970;28;1650;-71
2022/07/04 04:15:14;;;;;;;;;;;;;;;;;;4986899;28;862;-71
2022/07/04 04:17:41;;;;;;;;;;;;;;;;;;4989301;28;1254;-71
2022/07/04 04:20:08;;;;;;;;;;;;;;;;;;4989145;28;1119;-72
2022/07/04 04:22:35;;;;;;;;;;;;;;;;;;4984002;28;1305;-72
2022/07/04 04:25:01;;;;;;;;;;;;;;;;;;4970095;28;1016;-73
2022/07/04 04:27:28;;;;;;;;;;;;;;;;;;4981099;28;1395;-71
2022/07/04 04:29:55;;;;;;;;;;;;;;;;;;4989566;28;1998;-72
2022/07/04 04:32:22;;;;;;;;;;;;;;;;;;5001146;28;1627;-73
2022/07/04 04:34:49;;;;;;;;;;;;;;;;;;4972135;28;1395;-72
2022/07/04 04:37:15;;;;;;;;;;;;;;;;;;4968892;28;1376;-72
2022/07/04 04:39:41;;;;;;;;;;;;;;;;;;4969651;28;858;-72
2022/07/04 04:42:08;;;;;;;;;;;;;;;;;;4969245;28;866;-71
2022/07/04 04:44:34;;;;;;;;;;;;;;;;;;4969497;28;1070;-72
2022/07/04 04:47:02;;;;;;;;;;;;;;;;;;4974340;28;1277;-72
2022/07/04 04:49:29;;;;;;;;;;;;;;;;;;4969348;28;2017;-72
2022/07/04 04:51:55;;;;;;;;;;;;;;;;;;4969119;28;1709;-72
2022/07/04 04:54:22;;;;;;;;;;;;;;;;;;4995739;28;1341;-72
2022/07/04 04:56:48;;;;;;;;;;;;;;;;;;4990741;28;1352;-73
2022/07/04 04:59:15;;;;;;;;;;;;;;;;;;4968977;28;1214;-73
2022/07/04 05:01:41;;;;;;;;;;;;;;;;;;4985751;28;1446;-72
2022/07/04 05:04:09;;;;;;;;;;;;;;;;;;4986310;28;866;-73
2022/07/04 05:06:35;;;;;;;;;;;;;;;;;;4984675;28;1656;-73
2022/07/04 05:09:02;;;;;;;;;;;;;;;;;;4989676;28;1521;-72
2022/07/04 05:11:28;;;;;;;;;;;;;;;;;;5000254;28;2007;-73
2022/07/04 05:13:55;;;;;;;;;;;;;;;;;;4969094;28;1116;-72
2022/07/04 05:16:21;;;;;;;;;;;;;;;;;;5028029;28;1439;-73
2022/07/04 05:18:47;;;;;;;;;;;;;;;;;;5038295;28;1226;-72
2022/07/04 05:21:15;;;;;;;;;;;;;;;;;;5048044;28;1428;-73
2022/07/04 05:23:41;;;;;;;;;;;;;;;;;;5048132;28;1178;-72
2022/07/04 05:26:07;;;;;;;;;;;;;;;;;;5047937;28;1495;-73
2022/07/04 05:28:33;;;;;;;;;;;;;;;;;;5029330;28;1443;-74
2022/07/04 05:31:00;;;;;;;;;;;;;;;;;;5052549;28;1914;-74
2022/07/04 05:33:26;;;;;;;;;;;;;;;;;;5037220;28;1356;-72
2022/07/04 05:35:52;;;;;;;;;;;;;;;;;;5023796;28;1425;-72
2022/07/04 05:38:19;;;;;;;;;;;;;;;;;;5038877;28;1593;-73
2022/07/04 05:40:46;;;;;;;;;;;;;;;;;;5048445;28;1194;-73
2022/07/04 05:43:12;;;;;;;;;;;;;;;;;;5051152;28;1397;-73
2022/07/04 05:45:38;;;;;;;;;;;;;;;;;;5042173;28;1421;-73
2022/07/04 05:48:05;;;;;;;;;;;;;;;;;;5031638;28;1181;-73
2022/07/04 05:50:31;;;;;;;;;;;;;;;;;;5051453;28;1918;-73
2022/07/04 05:52:57;;;;;;;;;;;;;;;;;;5050630;28;1225;-73
2022/07/04 05:55:25;;;;;;;;;;;;;;;;;;5046411;28;1427;-73
2022/07/04 05:57:51;;;;;;;;;;;;;;;;;;5040555;28;1431;-73
2022/07/04 06:00:17;;;;;;;;;;;;;;;;;;5043128;28;1159;-73
2022/07/04 06:02:43;;;;;;;;;;;;;;;;;;5045161;28;1370;-73
2022/07/04 06:05:09;;;;;;;;;;;;;;;;;;5047045;28;1401;-75
2022/07/04 06:07:37;;;;;;;;;;;;;;;;;;5038366;28;1420;-73
2022/07/04 06:10:03;;;;;;;;;;;;;;;;;;5038873;28;1914;-73
2022/07/04 06:12:31;;;;;;;;;;;;;;;;;;5042798;28;1589;-73
2022/07/04 06:14:57;;;;;;;;;;;;;;;;;;5044671;28;1437;-73
2022/07/04 06:17:23;;;;;;;;;;;;;;;;;;5025276;28;1316;-74
2022/07/04 06:19:49;;;;;;;;;;;;;;;;;;5023402;28;1379;-72
2022/07/04 06:22:16;;;;;;;;;;;;;;;;;;5032706;28;1237;-73
2022/07/04 06:24:42;;;;;;;;;;;;;;;;;;5042161;28;1308;-73
2022/07/04 06:27:08;;;;;;;;;;;;;;;;;;5041979;28;1423;-74
2022/07/04 06:29:36;;;;;;;;;;;;;;;;;;5049555;28;1452;-72
2022/07/04 06:32:02;;;;;;;;;;;;;;;;;;5049104;28;1917;-74
2022/07/04 06:37:12;;;;;;;;;;;;;;;;;;5046410;28;1528;-74
2022/07/04 06:39:38;;;;;;;;;;;;;;;;;;5050862;28;1229;-74
2022/07/04 06:42:05;;;;;;;;;;;;;;;;;;5050575;28;712;-73
2022/07/04 06:44:31;;;;;;;;;;;;;;;;;;5050623;28;1059;-74
2022/07/04 06:46:58;;;;;;;;;;;;;;;;;;5039860;28;1440;-73
2022/07/04 06:49:24;;;;;;;;;;;;;;;;;;5046070;28;1209;-72
2022/07/04 06:51:50;;;;;;;;;;;;;;;;;;5021905;28;1985;-72
2022/07/04 06:54:17;;;;;;;;;;;;;;;;;;5040745;28;1401;-73
2022/07/04 06:56:43;;;;;;;;;;;;;;;;;;5039294;28;1419;-73
2022/07/04 06:59:09;;;;;;;;;;;;;;;;;;5049862;28;1236;-73
2022/07/04 07:01:35;;;;;;;;;;;;;;;;;;5048085;28;1325;-73
2022/07/04 07:04:03;;;;;;;;;;;;;;;;;;5045437;28;1170;-72
2022/07/04 07:06:29;;;;;;;;;;;;;;;;;;5024059;28;1495;-74
2022/07/04 07:08:55;;;;;;;;;;;;;;;;;;5048207;28;1081;-73
2022/07/04 07:11:21;;;;;;;;;;;;;;;;;;5049928;28;1914;-73
2022/07/04 07:13:49;;;;;;;;;;;;;;;;;;5049651;28;1087;-73
2022/07/04 07:16:16;;;;;;;;;;;;;;;;;;5040247;28;1393;-72
2022/07/04 07:18:42;;;;;;;;;;;;;;;;;;5047194;28;1162;-73
2022/07/04 07:21:09;;;;;;;;;;;;;;;;;;5048957;28;1526;-73
2022/07/04 07:23:37;;;;;;;;;;;;;;;;;;5049293;28;1361;-73
2022/07/04 07:26:04;;;;;;;;;;;;;;;;;;5048491;28;1489;-72
2022/07/04 07:28:30;;;;;;;;;;;;;;;;;;5050252;28;798;-73
2022/07/04 07:30:56;;;;;;;;;;;;;;;;;;5049714;28;1963;-73
2022/07/04 07:33:22;;;;;;;;;;;;;;;;;;5049578;28;1594;-73
2022/07/04 07:35:48;;;;;;;;;;;;;;;;;;5039638;28;1428;-73
2022/07/04 07:38:16;;;;;;;;;;;;;;;;;;5031100;28;1261;-73
2022/07/04 07:40:42;;;;;;;;;;;;;;;;;;5051027;28;1071;-73
2022/07/04 07:43:08;;;;;;;;;;;;;;;;;;5053911;28;831;-72
2022/07/04 07:45:35;;;;;;;;;;;;;;;;;;5027374;28;1422;-72
2022/07/04 07:48:01;;;;;;;;;;;;;;;;;;5033065;28;1156;-71
2022/07/04 07:50:27;;;;;;;;;;;;;;;;;;5053155;28;1914;-73
2022/07/04 07:52:53;;;;;;;;;;;;;;;;;;5048477;28;1401;-72
2022/07/04 07:55:21;;;;;;;;;;;;;;;;;;5053294;28;1225;-72
2022/07/04 07:57:47;;;;;;;;;;;;;;;;;;5047574;28;1374;-72
2022/07/04 08:00:13;;;;;;;;;;;;;;;;;;5024180;28;1804;-73
2022/07/04 08:05:23;;;;;;;;;;;;;;;;;;5056184;28;1573;-73
2022/07/04 08:07:49;;;;;;;;;;;;;;;;;;5051919;28;1357;-73
2022/07/04 08:10:16;;;;;;;;;;;;;;;;;;5052512;28;1501;-74
2022/07/04 08:12:43;;;;;;;;;;;;;;;;;;5053000;28;1906;-73
2022/07/04 08:15:10;;;;;;;;;;;;;;;;;;5050903;28;1489;-73
2022/07/04 08:17:36;;;;;;;;;;;;;;;;;;5044495;28;1431;-73
2022/07/04 08:20:03;;;;;;;;;;;;;;;;;;5051478;28;1209;-73
2022/07/04 08:22:29;;;;;;;;;;;;;;;;;;5045928;28;1432;-72
2022/07/04 08:24:55;;;;;;;;;;;;;;;;;;5048117;28;1379;-72
2022/07/04 08:27:22;;;;;;;;;;;;;;;;;;5047841;28;1382;-72
2022/07/04 08:29:50;;;;;;;;;;;;;;;;;;5030082;28;1424;-72
2022/07/04 08:32:16;;;;;;;;;;;;;;;;;;5049978;28;1975;-72
2022/07/04 08:34:42;;;;;;;;;;;;;;;;;;5050286;28;1452;-72
2022/07/04 08:37:08;;;;;;;;;;;;;;;;;;5048008;28;1385;-72
2022/07/04 08:39:35;;;;;;;;;;;;;;;;;;5050539;28;1458;-72
2022/07/04 08:42:02;;;;;;;;;;;;;;;;;;5042218;28;1380;-73
2022/07/04 08:44:29;;;;;;;;;;;;;;;;;;5033997;28;1352;-73
2022/07/04 08:46:56;;;;;;;;;;;;;;;;;;5050012;28;1432;-73
2022/07/04 08:49:23;;;;;;;;;;;;;;;;;;5043198;28;1408;-73
2022/07/04 08:51:52;;;;;;;;;;;;;;;;;;5047447;28;1918;-73
2022/07/04 08:59:49;;;;;;;;;;;;;;;;;;5051052;28;1459;-73
2022/07/04 09:02:17;;;;;;;;;;;;;;;;;;5043876;28;1131;-72
2022/07/04 09:04:44;;;;;;;;;;;;;;;;;;5051655;28;897;-72
2022/07/04 09:07:11;;;;;;;;;;;;;;;;;;5047900;28;1397;-73
2022/07/04 09:09:37;;;;;;;;;;;;;;;;;;5043365;28;1122;-73
2022/07/04 09:12:04;;;;;;;;;;;;;;;;;;5051692;28;1975;-73
2022/07/04 09:14:30;;;;;;;;;;;;;;;;;;5051656;28;985;-73
2022/07/04 09:16:57;;;;;;;;;;;;;;;;;;5050770;28;1270;-73
2022/07/04 09:19:25;;;;;;;;;;;;;;;;;;5042179;28;1392;-72
2022/07/04 09:21:51;;;;;;;;;;;;;;;;;;5050935;28;1153;-72
2022/07/04 09:24:17;;;;;;;;;;;;;;;;;;5050434;28;1371;-72
2022/07/04 09:26:45;;;;;;;;;;;;;;;;;;5049428;28;1482;-72
2022/07/04 09:29:11;;;;;;;;;;;;;;;;;;5047106;28;1419;-73
2022/07/04 09:31:37;;;;;;;;;;;;;;;;;;5051733;28;1910;-73
2022/07/04 09:34:04;;;;;;;;;;;;;;;;;;5051222;28;790;-72
2022/07/04 09:36:32;;;;;;;;;;;;;;;;;;5044854;28;1493;-72
2022/07/04 09:39:06;;;;;;;;;;;;;;;;;;5043085;28;1591;-72
2022/07/04 09:41:35;;;;;;;;;;;;;;;;;;5047143;28;1529;-71
2022/07/04 09:44:02;;;;;;;;;;;;;;;;;;5044096;28;1873;-72
2022/07/04 09:46:28;;;;;;;;;;;;;;;;;;5041988;28;1306;-71
2022/07/04 09:48:55;;;;;;;;;;;;;;;;;;5050626;28;1130;-72
2022/07/04 09:51:36;;;;;;;;;;;;;;;;;;5050762;28;1969;-71
2022/07/04 09:54:13;;;;;;;;;;;;;;;;;;5050589;28;1055;-71
2022/07/04 09:56:40;;;;;;;;;;;;;;;;;;5049733;28;1274;-72
2022/07/04 09:59:06;;;;;;;;;;;;;;;;;;5032706;28;1461;-71
2022/07/04 10:01:32;;;;;;;;;;;;;;;;;;5032518;28;1413;-72
2022/07/04 10:03:58;;;;;;;;;;;;;;;;;;5050474;28;1122;-72
2022/07/04 10:06:25;;;;;;;;;;;;;;;;;;5049662;28;1337;-72
2022/07/04 10:08:52;;;;;;;;;;;;;;;;;;5050590;28;1075;-71
2022/07/04 10:11:19;;;;;;;;;;;;;;;;;;5050588;28;1914;-72
2022/07/04 10:13:45;;;;;;;;;;;;;;;;;;5050676;28;1107;-72
2022/07/04 10:16:11;;;;;;;;;;;;;;;;;;5050277;28;1396;-72
2022/07/04 10:18:38;;;;;;;;;;;;;;;;;;5050572;28;1281;-72
2022/07/04 10:21:04;;;;;;;;;;;;;;;;;;5050629;28;956;-72
2022/07/04 10:23:31;;;;;;;;;;;;;;;;;;5050308;28;1079;-72
2022/07/04 10:25:58;;;;;;;;;;;;;;;;;;5050390;28;1422;-72
2022/07/04 10:28:25;;;;;;;;;;;;;;;;;;5050031;28;1007;-71
2022/07/04 10:30:52;;;;;;;;;;;;;;;;;;5050654;28;902;-73
2022/07/04 10:33:23;;;;;;;;;;;;;;;;;;5050055;28;1985;-72
2022/07/04 10:35:50;;;;;;;;;;;;;;;;;;5050170;28;1382;-72
2022/07/04 10:38:17;;;;;;;;;;;;;;;;;;5049730;28;1064;-72
2022/07/04 10:40:45;;;;;;;;;;;;;;;;;;5032200;28;1518;-72
2022/07/04 10:43:31;;;;;;;;;;;;;;;;;;5032546;28;1295;-72
2022/07/04 10:45:58;;;;;;;;;;;;;;;;;;5049959;28;1331;-72
2022/07/04 10:48:25;;;;;;;;;;;;;;;;;;5049190;28;983;-72
2022/07/04 10:50:59;;;;;;;;;;;;;;;;;;5049961;28;1075;-72
2022/07/04 10:53:25;;;;;;;;;;;;;;;;;;5050015;28;1878;-72
2022/07/04 10:55:51;;;;;;;;;;;;;;;;;;5048566;28;1482;-72
2022/07/04 10:58:28;;;;;;;;;;;;;;;;;;5045904;28;921;-72
2022/07/04 11:01:09;;;;;;;;;;;;;;;;;;5049892;28;778;-72
2022/07/04 11:03:43;;;;;;;;;;;;;;;;;;5031977;28;1311;-72
2022/07/04 11:06:16;;;;;;;;;;;;;;;;;;5049124;28;1325;-72
2022/07/04 11:08:57;;;;;;;;;;;;;;;;;;5031507;28;1277;-72
2022/07/04 11:11:38;;;;;;;;;;;;;;;;;;5049053;28;1910;-71
2022/07/04 11:14:30;;;;;;;;;;;;;;;;;;5018959;28;1204;-71
2022/07/04 11:16:56;;;;;;;;;;;;;;;;;;5032103;28;1416;-71
2022/07/04 11:19:24;;;;;;;;;;;;;;;;;;5029808;28;1234;-72
2022/07/04 11:21:50;;;;;;;;;;;;;;;;;;5053986;28;1231;-72
2022/07/04 11:24:16;;;;;;;;;;;;;;;;;;5036594;28;1252;-73
2022/07/04 11:26:42;;;;;;;;;;;;;;;;;;5049899;28;1420;-72
2022/07/04 11:29:08;;;;;;;;;;;;;;;;;;5052612;28;1283;-72
2022/07/04 11:31:35;;;;;;;;;;;;;;;;;;5052624;28;1914;-71
2022/07/04 11:34:01;;;;;;;;;;;;;;;;;;5040694;28;1379;-71
2022/07/04 11:36:29;;;;;;;;;;;;;;;;;;5044121;28;1479;-71
2022/07/04 11:38:58;;;;;;;;;;;;;;;;;;5050283;28;1316;-71
2022/07/04 11:47:01;;;;;;;;;;;;;;;;;;5021635;28;1397;-72
2022/07/04 11:49:27;;;;;;;;;;;;;;;;;;5048883;28;1390;-72
2022/07/04 11:51:55;;;;;;;;;;;;;;;;;;5050925;28;1914;-72
2022/07/04 11:54:22;;;;;;;;;;;;;;;;;;5053778;28;1060;-72
2022/07/04 11:56:48;;;;;;;;;;;;;;;;;;5045296;28;1413;-73
2022/07/04 11:59:15;;;;;;;;;;;;;;;;;;5045385;28;1312;-73
2022/07/04 12:01:41;;;;;;;;;;;;;;;;;;5050724;28;1533;-73
2022/07/04 12:04:17;;;;;;;;;;;;;;;;;;5052332;28;1225;-72
2022/07/04 12:06:43;;;;;;;;;;;;;;;;;;5021318;28;1408;-72
2022/07/04 12:09:11;;;;;;;;;;;;;;;;;;5052544;28;1266;-72
2022/07/04 12:11:56;;;;;;;;;;;;;;;;;;5051789;28;1380;-72
2022/07/04 12:14:23;;;;;;;;;;;;;;;;;;5043801;28;1526;-72
2022/07/04 12:16:49;;;;;;;;;;;;;;;;;;5042978;28;1491;-72
2022/07/04 12:19:15;;;;;;;;;;;;;;;;;;5053229;28;1141;-74
2022/07/04 12:21:43;;;;;;;;;;;;;;;;;;5052632;28;992;-74
2022/07/04 12:24:10;;;;;;;;;;;;;;;;;;5043581;28;1384;-74
2022/07/04 12:26:45;;;;;;;;;;;;;;;;;;5051048;28;1489;-71
2022/07/04 12:29:11;;;;;;;;;;;;;;;;;;5050459;28;1076;-73
2022/07/04 12:31:38;;;;;;;;;;;;;;;;;;5034729;28;1171;-73
2022/07/04 12:34:04;;;;;;;;;;;;;;;;;;5043271;28;1918;-72
2022/07/04 12:36:31;;;;;;;;;;;;;;;;;;5045306;28;1450;-73
2022/07/04 12:38:57;;;;;;;;;;;;;;;;;;5050492;28;1186;-72
2022/07/04 12:41:30;;;;;;;;;;;;;;;;;;5052392;28;890;-72
2022/07/04 12:43:58;;;;;;;;;;;;;;;;;;5052723;28;1055;-73
2022/07/04 12:46:28;;;;;;;;;;;;;;;;;;5051208;28;1378;-73
2022/07/04 12:48:55;;;;;;;;;;;;;;;;;;5024506;28;1329;-72
2022/07/04 12:51:21;;;;;;;;;;;;;;;;;;5052170;28;1407;-73
2022/07/04 12:53:48;;;;;;;;;;;;;;;;;;5049127;28;1918;-73
2022/07/04 12:56:27;;;;;;;;;;;;;;;;;;5043894;28;1285;-73
2022/07/04 12:58:55;;;;;;;;;;;;;;;;;;5049523;28;1378;-73
2022/07/04 13:01:21;;;;;;;;;;;;;;;;;;5052144;28;1201;-72
2022/07/04 13:03:47;;;;;;;;;;;;;;;;;;5050055;28;1420;-72
2022/07/04 13:06:13;;;;;;;;;;;;;;;;;;5042863;28;1412;-73
2022/07/04 13:08:39;;;;;;;;;;;;;;;;;;5043621;28;1377;-72
2022/07/04 13:13:50;;;;;;;;;;;;;;;;;;5042963;28;1926;-73
2022/07/04 13:16:17;;;;;;;;;;;;;;;;;;5034476;28;1329;-73
2022/07/04 13:18:43;;;;;;;;;;;;;;;;;;5051838;28;1003;-72
2022/07/04 13:21:09;;;;;;;;;;;;;;;;;;5052061;28;1412;-72
2022/07/04 13:23:37;;;;;;;;;;;;;;;;;;5051918;28;839;-72
2022/07/04 13:26:03;;;;;;;;;;;;;;;;;;5051536;28;1526;-72
2022/07/04 13:28:29;;;;;;;;;;;;;;;;;;5051467;28;1303;-72
2022/07/04 13:30:55;;;;;;;;;;;;;;;;;;5052152;28;1088;-73
2022/07/04 13:33:23;;;;;;;;;;;;;;;;;;5049672;28;1918;-73
2022/07/04 13:35:49;;;;;;;;;;;;;;;;;;5030418;28;1510;-72
2022/07/04 13:38:15;;;;;;;;;;;;;;;;;;5041420;28;1456;-73
2022/07/04 13:40:42;;;;;;;;;;;;;;;;;;5039090;28;1420;-73
2022/07/04 13:43:10;;;;;;;;;;;;;;;;;;5041474;28;1413;-73
2022/07/04 13:45:38;;;;;;;;;;;;;;;;;;5023358;28;1420;-73
2022/07/04 13:48:04;;;;;;;;;;;;;;;;;;5042179;28;1599;-72
2022/07/04 13:50:32;;;;;;;;;;;;;;;;;;5050272;28;1296;-73
2022/07/04 13:52:58;;;;;;;;;;;;;;;;;;5051596;28;1949;-72
2022/07/04 13:55:24;;;;;;;;;;;;;;;;;;5045582;28;1363;-73
2022/07/04 13:57:50;;;;;;;;;;;;;;;;;;5043852;28;1119;-72
2022/07/04 14:00:17;;;;;;;;;;;;;;;;;;5047590;28;1395;-72
2022/07/04 14:02:43;;;;;;;;;;;;;;;;;;5046841;28;2295;-73
2022/07/04 14:05:09;;;;;;;;;;;;;;;;;;5057653;28;1562;-72
2022/07/04 14:07:37;;;;;;;;;;;;;;;;;;5021739;28;1485;-73
2022/07/04 14:10:03;;;;;;;;;;;;;;;;;;5036205;28;1446;-73
2022/07/04 14:12:29;;;;;;;;;;;;;;;;;;5049412;28;1975;-72
2022/07/04 14:14:56;;;;;;;;;;;;;;;;;;5046048;28;1373;-73
2022/07/04 14:17:22;;;;;;;;;;;;;;;;;;5041356;28;1389;-73
2022/07/04 14:19:48;;;;;;;;;;;;;;;;;;5047383;28;1380;-72
2022/07/04 14:22:14;;;;;;;;;;;;;;;;;;5042385;28;1521;-72
2022/07/04 14:24:42;;;;;;;;;;;;;;;;;;5041196;28;1357;-73
2022/07/04 14:27:08;;;;;;;;;;;;;;;;;;5041928;28;1420;-72
2022/07/04 14:29:34;;;;;;;;;;;;;;;;;;5042435;28;1463;-73
2022/07/04 14:32:01;;;;;;;;;;;;;;;;;;5029710;28;1364;-72
2022/07/04 14:34:27;;;;;;;;;;;;;;;;;;5040379;28;1906;-72
2022/07/04 14:36:53;;;;;;;;;;;;;;;;;;5040987;28;1357;-72
2022/07/04 14:39:19;;;;;;;;;;;;;;;;;;5039791;28;1440;-73
2022/07/04 14:41:48;;;;;;;;;;;;;;;;;;5047540;28;1369;-73
2022/07/04 14:44:14;;;;;;;;;;;;;;;;;;5020139;28;1384;-73
2022/07/04 14:46:40;;;;;;;;;;;;;;;;;;5037863;28;1412;-73
2022/07/04 14:49:07;;;;;;;;;;;;;;;;;;5039263;28;1518;-73
2022/07/04 14:51:33;;;;;;;;;;;;;;;;;;5043532;28;1622;-74
2022/07/04 14:53:59;;;;;;;;;;;;;;;;;;5032454;28;1918;-73
2022/07/04 14:56:25;;;;;;;;;;;;;;;;;;5042273;28;1494;-74
2022/07/04 14:58:53;;;;;;;;;;;;;;;;;;5047037;28;1107;-74
2022/07/04 15:01:20;;;;;;;;;;;;;;;;;;5025463;28;1571;-74
2022/07/04 15:03:46;;;;;;;;;;;;;;;;;;5042795;28;1439;-74
2022/07/04 15:06:12;;;;;;;;;;;;;;;;;;5039394;28;1412;-73
2022/07/04 15:08:38;;;;;;;;;;;;;;;;;;5022859;28;1455;-74
2022/07/04 15:11:04;;;;;;;;;;;;;;;;;;5039070;28;1447;-74
2022/07/04 15:13:30;;;;;;;;;;;;;;;;;;5045737;28;1937;-74
2022/07/04 15:15:58;;;;;;;;;;;;;;;;;;5030783;28;1465;-73
2022/07/04 15:18:24;;;;;;;;;;;;;;;;;;5044050;28;1415;-74
2022/07/04 15:26:23;;;;;;;;;;;;;;;;;;5035177;28;1412;-73
2022/07/04 15:28:49;;;;;;;;;;;;;;;;;;5046565;28;1616;-73
2022/07/04 15:31:17;;;;;;;;;;;;;;;;;;5047795;28;1139;-73
2022/07/04 15:33:43;;;;;;;;;;;;;;;;;;5042279;28;1928;-73
2022/07/04 15:36:10;;;;;;;;;;;;;;;;;;5048420;28;1412;-74
2022/07/04 15:38:36;;;;;;;;;;;;;;;;;;5049595;28;1339;-74
2022/07/04 15:41:02;;;;;;;;;;;;;;;;;;5049291;28;1060;-74
2022/07/04 15:43:29;;;;;;;;;;;;;;;;;;5048221;28;1150;-74
2022/07/04 15:45:55;;;;;;;;;;;;;;;;;;5049578;28;1326;-73
2022/07/04 15:48:22;;;;;;;;;;;;;;;;;;5047381;28;1404;-73
2022/07/04 15:50:49;;;;;;;;;;;;;;;;;;5025071;28;1126;-73
2022/07/04 15:53:15;;;;;;;;;;;;;;;;;;5040133;28;1914;-73
2022/07/04 15:55:41;;;;;;;;;;;;;;;;;;5021527;28;1714;-73
2022/07/04 15:58:08;;;;;;;;;;;;;;;;;;5027167;28;1396;-72
2022/07/04 16:00:34;;;;;;;;;;;;;;;;;;5024995;28;1449;-72
2022/07/04 16:03:00;;;;;;;;;;;;;;;;;;5047050;28;1349;-72
2022/07/04 16:05:28;;;;;;;;;;;;;;;;;;5067420;22;4187;-79
2022/07/04 16:07:54;;;;;;;;;;;;;;;;;;5037431;28;1236;-80
2022/07/04 16:10:21;;;;;;;;;;;;;;;;;;5038814;28;1119;-78
2022/07/04 16:12:47;;;;;;;;;;;;;;;;;;5038869;28;1072;-79
2022/07/04 16:15:13;;;;;;;;;;;;;;;;;;5038511;28;1911;-79
2022/07/04 16:17:39;;;;;;;;;;;;;;;;;;5039230;28;929;-79
2022/07/04 16:20:06;;;;;;;;;;;;;;;;;;5039310;28;1264;-79
2022/07/04 16:22:34;;;;;;;;;;;;;;;;;;5039139;28;1059;-79
2022/07/04 16:25:00;;;;;;;;;;;;;;;;;;5037930;28;1398;-78
2022/07/04 16:27:27;;;;;;;;;;;;;;;;;;5037392;28;1059;-77
2022/07/04 16:29:53;;;;;;;;;;;;;;;;;;5037797;28;969;-79
2022/07/04 16:32:19;;;;;;;;;;;;;;;;;;5036726;28;1119;-79
2022/07/04 16:34:45;;;;;;;;;;;;;;;;;;5036882;28;1918;-79
2022/07/04 16:37:11;;;;;;;;;;;;;;;;;;5038672;28;1132;-79
2022/07/04 16:39:39;;;;;;;;;;;;;;;;;;5037193;28;1211;-80
2022/07/04 16:42:05;;;;;;;;;;;;;;;;;;5038846;28;863;-79
2022/07/04 16:44:31;;;;;;;;;;;;;;;;;;5039645;28;886;-79
2022/07/04 16:46:57;;;;;;;;;;;;;;;;;;5035497;28;1287;-78
2022/07/04 16:49:24;;;;;;;;;;;;;;;;;;5037076;28;783;-79
2022/07/04 16:51:50;;;;;;;;;;;;;;;;;;5037032;28;964;-79
2022/07/04 16:54:16;;;;;;;;;;;;;;;;;;5033648;28;1914;-79
2022/07/04 16:56:44;;;;;;;;;;;;;;;;;;5032369;28;1389;-77
2022/07/04 16:59:10;;;;;;;;;;;;;;;;;;5033355;28;1241;-77
2022/07/04 17:01:36;;;;;;;;;;;;;;;;;;5033760;28;1077;-77
2022/07/04 17:04:03;;;;;;;;;;;;;;;;;;5033532;28;811;-77
2022/07/04 17:06:29;;;;;;;;;;;;;;;;;;5031789;28;1551;-78
2022/07/04 17:08:55;;;;;;;;;;;;;;;;;;5033241;28;1253;-77
2022/07/04 17:11:21;;;;;;;;;;;;;;;;;;5033694;28;946;-78
2022/07/04 17:13:49;;;;;;;;;;;;;;;;;;5031804;28;1977;-76
2022/07/04 17:16:15;;;;;;;;;;;;;;;;;;5028863;28;1493;-78
2022/07/04 17:18:41;;;;;;;;;;;;;;;;;;5033183;28;1740;-77
2022/07/04 17:21:08;;;;;;;;;;;;;;;;;;5027954;28;1380;-78
2022/07/04 17:23:34;;;;;;;;;;;;;;;;;;5019921;28;1400;-79
2022/07/04 17:26:00;;;;;;;;;;;;;;;;;;5014950;28;1509;-79
2022/07/04 17:28:26;;;;;;;;;;;;;;;;;;5029360;28;1482;-78
2022/07/04 17:30:54;;;;;;;;;;;;;;;;;;5032864;28;1238;-78
2022/07/04 17:33:21;;;;;;;;;;;;;;;;;;5033021;28;1064;-78